createdAt,value
2019-01-11T00:02:27.627Z,15.97
2019-01-11T00:04:59.423Z,16.43
2019-01-11T00:07:29.289Z,17.87
2019-01-11T00:09:59.329Z,17.03
2019-01-11T00:12:29.154Z,16.40
2019-01-11T00:14:59.015Z,17.60
2019-01-11T00:17:29.266Z,18.20
2019-01-11T00:20:03.527Z,18.67
2019-01-11T00:22:30.830Z,18.83
2019-01-11T00:25:02.457Z,17.97
2019-01-11T00:27:32.320Z,18.67
2019-01-11T00:30:02.276Z,20.60
2019-01-11T00:32:32.329Z,20.13
2019-01-11T00:35:02.540Z,20.40
2019-01-11T00:37:51.907Z,19.80
2019-01-11T00:40:41.043Z,21.50
2019-01-11T00:43:30.161Z,24.23
2019-01-11T00:46:19.291Z,22.70
2019-01-11T00:49:13.561Z,20.87
2019-01-11T00:51:59.876Z,24.00
2019-01-11T00:54:41.921Z,21.83
2019-01-11T00:57:31.406Z,23.23
2019-01-11T01:01:00.768Z,23.27
2019-01-11T01:03:49.891Z,22.63
2019-01-11T01:06:39.099Z,21.50
2019-01-11T01:09:28.544Z,23.63
2019-01-11T01:12:17.881Z,24.07
2019-01-11T01:15:47.314Z,23.87
2019-01-11T01:18:36.431Z,25.27
2019-01-11T01:21:25.524Z,24.10
2019-01-11T01:24:34.183Z,24.30
2019-01-11T01:27:23.627Z,25.57
2019-01-11T01:30:53.368Z,25.43
2019-01-11T01:33:42.773Z,24.50
2019-01-11T01:36:31.900Z,26.70
2019-01-11T01:39:21.339Z,28.57
2019-01-11T01:42:10.992Z,26.80
2019-01-11T01:45:00.342Z,28.23
2019-01-11T01:47:49.470Z,27.23
2019-01-11T01:50:38.674Z,26.40
2019-01-11T01:53:27.801Z,29.20
2019-01-11T01:56:10.372Z,27.93
2019-01-11T01:58:59.510Z,28.53
2019-01-11T02:01:48.624Z,29.80
2019-01-11T02:04:38.065Z,30.37
2019-01-11T02:07:27.155Z,28.40
2019-01-11T02:10:16.269Z,29.37
2019-01-11T02:13:05.800Z,29.87
2019-01-11T02:19:04.919Z,30.60
2019-01-11T02:21:54.065Z,30.83
2019-01-11T02:24:43.193Z,27.80
2019-01-11T02:27:32.616Z,28.27
2019-01-11T02:30:23.355Z,25.10
2019-01-11T02:33:12.795Z,24.73
2019-01-11T02:36:02.123Z,25.03
2019-01-11T02:38:51.470Z,23.43
2019-01-11T02:41:40.620Z,22.03
2019-01-11T02:44:29.693Z,20.10
2019-01-11T02:47:19.451Z,22.83
2019-01-11T02:50:28.283Z,22.57
2019-01-11T02:53:17.372Z,22.53
2019-01-11T02:55:57.497Z,21.60
2019-01-11T02:58:46.618Z,24.80
2019-01-11T03:01:35.735Z,23.47
2019-01-11T03:04:24.872Z,22.20
2019-01-11T03:07:13.971Z,20.53
2019-01-11T03:10:03.076Z,22.10
2019-01-11T03:12:52.206Z,23.23
2019-01-11T03:16:00.868Z,20.40
2019-01-11T03:18:49.954Z,20.80
2019-01-11T03:21:39.122Z,21.43
2019-01-11T03:24:28.227Z,19.40
2019-01-11T03:27:17.676Z,17.17
2019-01-11T03:30:47.576Z,18.70
2019-01-11T03:33:36.715Z,18.33
2019-01-11T03:36:26.155Z,20.67
2019-01-11T03:39:15.600Z,19.30
2019-01-11T03:42:23.991Z,20.10
2019-01-11T03:45:14.611Z,20.63
2019-01-11T03:48:03.804Z,19.40
2019-01-11T03:50:52.962Z,20.10
2019-01-11T03:53:42.090Z,19.17
2019-01-11T03:56:23.504Z,20.30
2019-01-11T03:59:12.878Z,19.77
2019-01-11T04:02:01.984Z,18.10
2019-01-11T04:04:51.445Z,17.40
2019-01-11T04:07:40.929Z,18.13
2019-01-11T04:10:30.365Z,19.93
2019-01-11T04:13:19.490Z,20.03
2019-01-11T04:16:08.591Z,19.30
2019-01-11T04:19:16.691Z,19.93
2019-01-11T04:22:24.841Z,18.67
2019-01-11T04:25:45.451Z,17.03
2019-01-11T04:28:23.937Z,16.50
2019-01-11T04:31:13.291Z,16.07
2019-01-11T04:34:02.939Z,15.63
2019-01-11T04:36:52.053Z,17.30
2019-01-11T04:39:41.137Z,16.53
2019-01-11T04:42:30.233Z,16.07
2019-01-11T04:45:19.750Z,15.97
2019-01-11T04:48:08.837Z,14.40
2019-01-11T04:50:57.990Z,14.80
2019-01-11T04:56:39.683Z,14.60
2019-01-11T04:59:28.837Z,14.40
2019-01-11T05:02:18.003Z,15.00
2019-01-11T05:05:07.244Z,15.23
2019-01-11T05:07:56.672Z,13.43
2019-01-11T05:10:45.821Z,14.10
2019-01-11T05:13:54.176Z,13.47
2019-01-11T05:16:43.276Z,13.73
2019-01-11T05:19:32.405Z,14.07
2019-01-11T05:22:21.503Z,13.23
2019-01-11T05:24:51.665Z,12.27
2019-01-11T05:27:21.526Z,11.47
2019-01-11T05:29:51.682Z,12.13
2019-01-11T05:32:41.043Z,13.53
2019-01-11T05:35:30.174Z,12.20
2019-01-11T05:38:19.296Z,14.17
2019-01-11T05:41:08.481Z,15.40
2019-01-11T05:43:57.594Z,13.13
2019-01-11T05:46:46.767Z,15.53
2019-01-11T05:49:36.159Z,14.87
2019-01-11T05:52:25.296Z,14.70
2019-01-11T06:01:29.714Z,14.10
2019-01-11T06:04:37.778Z,14.73
2019-01-11T06:07:45.838Z,14.37
2019-01-11T06:10:34.925Z,14.33
2019-01-11T06:13:24.195Z,13.57
2019-01-11T06:16:13.287Z,14.13
2019-01-11T06:19:02.436Z,14.03
2019-01-11T06:21:51.880Z,14.23
2019-01-11T06:24:41.475Z,13.90
2019-01-11T06:30:25.604Z,13.30
2019-01-11T06:33:15.065Z,13.30
2019-01-11T06:36:04.424Z,13.60
2019-01-11T06:38:53.541Z,14.87
2019-01-11T06:44:42.181Z,13.40
2019-01-11T06:47:31.642Z,12.93
2019-01-11T06:50:20.750Z,13.07
2019-01-11T06:53:09.885Z,13.83
2019-01-11T06:55:59.312Z,13.97
2019-01-11T06:58:41.535Z,13.10
2019-01-11T07:01:30.879Z,11.80
2019-01-11T07:04:20.312Z,13.53
2019-01-11T07:07:09.388Z,15.10
2019-01-11T07:09:58.862Z,14.97
2019-01-11T07:12:48.299Z,16.27
2019-01-11T07:15:37.667Z,15.47
2019-01-11T07:18:27.042Z,17.60
2019-01-11T07:21:16.410Z,18.20
2019-01-11T07:24:06.089Z,18.63
2019-01-11T07:26:55.540Z,17.13
2019-01-11T07:29:44.660Z,18.40
2019-01-11T07:32:33.750Z,19.30
2019-01-11T07:35:22.838Z,19.97
2019-01-11T07:38:11.978Z,19.63
2019-01-11T07:41:01.100Z,20.00
2019-01-11T07:43:50.454Z,21.53
2019-01-11T07:52:45.631Z,21.10
2019-01-11T07:55:34.710Z,19.60
2019-01-11T07:58:16.827Z,25.03
2019-01-11T08:04:15.955Z,21.07
2019-01-11T08:07:05.257Z,20.97
2019-01-11T08:09:54.592Z,21.73
2019-01-11T08:12:44.210Z,20.97
2019-01-11T08:15:33.603Z,19.70
2019-01-11T08:18:23.560Z,19.60
2019-01-11T08:21:12.679Z,19.47
2019-01-11T08:24:01.802Z,21.20
2019-01-11T08:29:45.654Z,19.93
2019-01-11T08:32:34.759Z,19.17
2019-01-11T08:35:23.903Z,20.93
2019-01-11T08:38:13.034Z,21.53
2019-01-11T08:41:02.113Z,20.97
2019-01-11T08:43:51.212Z,20.90
2019-01-11T08:46:40.648Z,20.10
2019-01-11T08:49:29.776Z,22.83
2019-01-11T08:52:19.662Z,22.40
2019-01-11T08:55:08.865Z,22.07
2019-01-11T08:57:50.682Z,21.40
2019-01-11T09:00:39.807Z,23.20
2019-01-11T09:06:24.840Z,23.80
2019-01-11T09:09:33.040Z,22.37
2019-01-11T09:12:22.395Z,24.67
2019-01-11T09:15:31.245Z,23.97
2019-01-11T09:18:32.779Z,25.17
2019-01-11T09:21:21.905Z,24.30
2019-01-11T09:24:11.007Z,24.23
2019-01-11T09:27:00.135Z,24.50
2019-01-11T09:29:49.243Z,26.33
2019-01-11T09:32:19.116Z,25.67
2019-01-11T09:34:49.282Z,22.33
2019-01-11T09:37:19.209Z,22.30
2019-01-11T09:39:49.026Z,23.50
2019-01-11T09:42:19.320Z,22.97
2019-01-11T09:44:49.273Z,23.40
2019-01-11T09:47:19.772Z,24.70
2019-01-11T09:49:50.204Z,24.70
2019-01-11T09:52:20.102Z,22.07
2019-01-11T09:54:50.335Z,23.27
2019-01-11T09:57:20.300Z,22.40
2019-01-11T09:59:50.173Z,26.60
2019-01-11T10:02:36.307Z,24.63
2019-01-11T10:05:09.201Z,25.33
2019-01-11T10:07:39.720Z,28.40
2019-01-11T10:10:13.434Z,26.60
2019-01-11T10:12:43.874Z,26.63
2019-01-11T10:15:15.005Z,26.90
2019-01-11T10:17:46.629Z,25.30
2019-01-11T10:20:16.569Z,25.00
2019-01-11T10:22:46.457Z,24.33
2019-01-11T10:25:16.562Z,24.70
2019-01-11T10:27:46.786Z,20.57
2019-01-11T10:30:19.154Z,24.30
2019-01-11T10:32:49.074Z,24.60
2019-01-11T10:35:19.939Z,24.40
2019-01-11T10:37:49.961Z,24.70
2019-01-11T10:40:20.094Z,26.90
2019-01-11T10:42:50.694Z,23.80
2019-01-11T10:45:22.838Z,24.70
2019-01-11T10:47:55.927Z,23.20
2019-01-11T10:50:25.856Z,23.07
2019-01-11T10:52:56.045Z,23.00
2019-01-11T10:55:26.164Z,20.60
2019-01-11T10:57:56.725Z,23.73
2019-01-11T11:00:27.767Z,20.47
2019-01-11T11:02:58.432Z,23.33
2019-01-11T11:05:28.681Z,21.43
2019-01-11T11:07:58.511Z,21.03
2019-01-11T11:10:28.624Z,22.70
2019-01-11T11:12:58.545Z,20.17
2019-01-11T11:15:28.406Z,25.37
2019-01-11T11:17:58.541Z,22.93
2019-01-11T11:20:28.389Z,22.20
2019-01-11T11:22:58.373Z,20.53
2019-01-11T11:25:30.082Z,20.60
2019-01-11T11:28:00.316Z,19.10
2019-01-11T11:30:30.492Z,20.40
2019-01-11T11:33:01.810Z,20.77
2019-01-11T11:35:32.796Z,18.33
2019-01-11T11:38:03.325Z,21.00
2019-01-11T11:40:33.950Z,18.00
2019-01-11T11:43:03.810Z,18.70
2019-01-11T11:45:33.710Z,16.33
2019-01-11T11:48:03.853Z,18.03
2019-01-11T11:50:34.335Z,16.17
2019-01-11T11:53:04.295Z,17.23
2019-01-11T11:55:34.209Z,16.40
2019-01-11T11:58:04.033Z,15.07
2019-01-11T12:00:34.847Z,15.27
2019-01-11T12:03:05.133Z,15.10
2019-01-11T12:05:35.215Z,12.53
2019-01-11T12:08:05.200Z,12.50
2019-01-11T12:10:35.051Z,12.07
2019-01-11T12:13:05.132Z,12.57
2019-01-11T12:15:35.337Z,11.70
2019-01-11T12:18:05.229Z,12.80
2019-01-11T12:20:35.567Z,11.20
2019-01-11T12:23:05.897Z,10.40
2019-01-11T12:25:36.056Z,10.70
2019-01-11T12:28:05.993Z,11.50
2019-01-11T12:30:36.179Z,11.60
2019-01-11T12:33:06.125Z,12.60
2019-01-11T12:35:36.019Z,12.10
2019-01-11T12:38:05.970Z,13.20
2019-01-11T12:40:35.897Z,13.40
2019-01-11T12:43:05.905Z,14.60
2019-01-11T12:45:36.048Z,13.07
2019-01-11T12:48:06.153Z,11.37
2019-01-11T12:50:36.038Z,12.57
2019-01-11T12:53:06.091Z,11.33
2019-01-11T12:55:36.029Z,10.53
2019-01-11T12:58:05.963Z,10.60
2019-01-11T13:00:36.115Z,10.40
2019-01-11T13:03:06.090Z,10.10
2019-01-11T13:05:36.092Z,8.80
2019-01-11T13:08:05.905Z,8.77
2019-01-11T13:10:36.122Z,9.20
2019-01-11T13:13:06.064Z,7.13
2019-01-11T13:15:36.581Z,6.27
2019-01-11T13:18:06.541Z,6.60
2019-01-11T13:20:36.435Z,6.20
2019-01-11T13:23:07.492Z,5.63
2019-01-11T13:25:38.854Z,5.00
2019-01-11T13:28:08.753Z,5.33
2019-01-11T13:30:38.636Z,4.40
2019-01-11T13:33:08.902Z,4.40
2019-01-11T13:35:38.739Z,4.87
2019-01-11T13:38:09.105Z,4.20
2019-01-11T13:40:39.260Z,4.80
2019-01-11T13:43:09.149Z,4.57
2019-01-11T13:45:39.604Z,5.43
2019-01-11T13:48:09.534Z,5.10
2019-01-11T13:50:41.935Z,5.97
2019-01-11T13:53:17.463Z,5.60
2019-01-11T13:55:47.376Z,7.13
2019-01-11T13:58:17.830Z,6.13
2019-01-11T14:00:48.489Z,6.27
2019-01-11T14:03:18.442Z,6.63
2019-01-11T14:05:48.590Z,6.30
2019-01-11T14:08:19.001Z,6.17
2019-01-11T14:10:48.869Z,6.97
2019-01-11T14:13:19.056Z,7.80
2019-01-11T14:15:49.039Z,6.87
2019-01-11T14:18:19.285Z,8.47
2019-01-11T14:20:52.506Z,7.70
2019-01-11T14:23:22.399Z,8.50
2019-01-11T14:25:52.437Z,8.20
2019-01-11T14:28:22.613Z,8.70
2019-01-11T14:30:52.758Z,9.43
2019-01-11T14:33:23.161Z,11.20
2019-01-11T14:35:53.198Z,11.07
2019-01-11T14:38:23.588Z,11.00
2019-01-11T14:40:53.472Z,13.13
2019-01-11T14:43:23.378Z,12.00
2019-01-11T14:45:53.995Z,12.77
2019-01-11T14:48:24.193Z,12.80
2019-01-11T14:50:54.112Z,13.63
2019-01-11T14:53:24.761Z,12.90
2019-01-11T14:55:56.262Z,15.20
2019-01-11T14:58:28.819Z,14.20
2019-01-11T15:00:58.790Z,15.47
2019-01-11T15:03:28.727Z,15.53
2019-01-11T15:05:58.796Z,16.60
2019-01-11T15:08:28.646Z,15.10
2019-01-11T15:10:58.624Z,14.70
2019-01-11T15:13:28.492Z,13.00
2019-01-11T15:15:58.625Z,13.20
2019-01-11T15:22:16.425Z,11.30
2019-01-11T15:24:46.316Z,11.73
2019-01-11T15:27:16.452Z,12.20
2019-01-11T15:32:34.665Z,11.60
2019-01-11T15:35:23.740Z,11.93
2019-01-11T15:41:09.400Z,11.53
2019-01-11T15:43:58.537Z,10.53
2019-01-11T15:46:47.846Z,13.60
2019-01-11T15:49:36.968Z,12.27
2019-01-11T15:52:26.072Z,11.83
2019-01-11T15:55:15.296Z,11.53
2019-01-11T15:58:04.404Z,11.83
2019-01-11T16:00:53.730Z,12.43
2019-01-11T16:03:33.870Z,12.23
2019-01-11T16:06:42.529Z,13.07
2019-01-11T16:10:12.237Z,13.40
2019-01-11T16:12:58.148Z,10.03
2019-01-11T16:16:12.637Z,11.23
2019-01-11T16:19:01.791Z,9.10
2019-01-11T16:21:51.144Z,9.63
2019-01-11T16:24:40.331Z,8.53
2019-01-11T16:27:49.163Z,9.13
2019-01-11T16:30:38.612Z,9.77
2019-01-11T16:33:27.812Z,7.97
2019-01-11T16:36:17.250Z,7.00
2019-01-11T16:39:47.739Z,5.97
2019-01-11T16:42:38.764Z,6.00
2019-01-11T16:45:27.699Z,5.20
2019-01-11T16:48:16.770Z,4.63
2019-01-11T16:51:06.298Z,4.13
2019-01-11T16:53:55.669Z,3.37
2019-01-11T16:57:03.758Z,2.80
2019-01-11T16:59:53.139Z,2.67
2019-01-11T17:02:36.735Z,1.77
2019-01-11T17:05:25.844Z,2.30
2019-01-11T17:08:15.531Z,2.30
2019-01-11T17:11:45.120Z,2.00
2019-01-11T17:14:34.274Z,1.87
2019-01-11T17:17:42.421Z,2.97
2019-01-11T17:20:32.734Z,1.70
2019-01-11T17:23:22.785Z,2.10
2019-01-11T17:26:12.184Z,1.87
2019-01-11T17:29:01.569Z,2.40
2019-01-11T17:31:43.724Z,3.00
2019-01-11T17:34:32.836Z,2.50
2019-01-11T17:37:21.931Z,2.60
2019-01-11T17:40:12.687Z,2.37
2019-01-11T17:43:01.790Z,2.27
2019-01-11T17:45:51.222Z,2.57
2019-01-11T17:48:40.309Z,2.50
2019-01-11T17:51:30.075Z,3.00
2019-01-11T17:54:19.454Z,3.00
2019-01-11T17:57:08.530Z,2.53
2019-01-11T17:59:57.612Z,2.73
2019-01-11T18:02:39.163Z,3.43
2019-01-11T18:05:28.359Z,3.03
2019-01-11T18:08:17.464Z,2.73
2019-01-11T18:11:06.633Z,3.17
2019-01-11T18:13:55.769Z,4.20
2019-01-11T18:16:44.901Z,3.37
2019-01-11T18:19:34.651Z,2.60
2019-01-11T18:22:23.754Z,2.70
2019-01-11T18:25:13.035Z,3.60
2019-01-11T18:28:02.139Z,3.67
2019-01-11T18:30:51.508Z,3.50
2019-01-11T18:33:41.035Z,3.97
2019-01-11T18:36:30.341Z,4.40
2019-01-11T18:39:19.762Z,5.17
2019-01-11T18:42:08.844Z,4.60
2019-01-11T18:44:58.327Z,4.20
2019-01-11T18:47:47.706Z,4.97
2019-01-11T18:50:36.817Z,3.43
2019-01-11T18:53:25.930Z,4.67
2019-01-11T18:56:15.039Z,3.33
2019-01-11T18:59:04.273Z,4.70
2019-01-11T19:01:53.400Z,4.53
2019-01-11T19:04:34.952Z,3.97
2019-01-11T19:07:24.084Z,4.37
2019-01-11T19:10:14.582Z,3.90
2019-01-11T19:13:03.907Z,3.57
2019-01-11T19:15:53.022Z,5.70
2019-01-11T19:18:42.732Z,3.97
2019-01-11T19:21:32.090Z,3.03
2019-01-11T19:24:21.215Z,4.43
2019-01-11T19:27:10.350Z,5.07
2019-01-11T19:29:59.481Z,4.80
2019-01-11T19:32:48.970Z,4.60
2019-01-11T19:35:38.189Z,4.77
2019-01-11T19:38:28.945Z,5.20
2019-01-11T19:41:18.304Z,4.30
2019-01-11T19:44:07.717Z,5.00
2019-01-11T19:46:56.833Z,4.67
2019-01-11T19:49:45.998Z,6.20
2019-01-11T19:52:35.339Z,4.70
2019-01-11T19:55:24.481Z,5.10
2019-01-11T19:58:13.601Z,5.03
2019-01-11T20:01:02.910Z,4.93
2019-01-11T20:03:45.042Z,4.90
2019-01-11T20:06:34.386Z,6.90
2019-01-11T20:09:23.504Z,6.20
2019-01-11T20:12:12.619Z,6.40
2019-01-11T20:15:02.125Z,5.40
2019-01-11T20:17:51.472Z,5.80
2019-01-11T20:20:40.671Z,6.30
2019-01-11T20:23:34.798Z,5.87
2019-01-11T20:29:16.383Z,6.23
2019-01-11T20:32:05.553Z,5.80
2019-01-11T20:34:54.943Z,7.57
2019-01-11T20:37:44.254Z,5.30
2019-01-11T20:40:33.368Z,7.03
2019-01-11T20:43:22.480Z,6.83
2019-01-11T20:46:11.569Z,5.80
2019-01-11T20:49:00.699Z,5.40
2019-01-11T20:51:50.128Z,6.43
2019-01-11T20:54:39.905Z,6.20
2019-01-11T20:57:29.031Z,6.17
2019-01-11T21:00:59.149Z,6.10
2019-01-11T21:03:48.259Z,6.43
2019-01-11T21:06:29.887Z,6.30
2019-01-11T21:09:19.028Z,5.17
2019-01-11T21:12:08.141Z,6.93
2019-01-11T21:14:57.810Z,6.60
2019-01-11T21:17:46.932Z,7.50
2019-01-11T21:20:36.605Z,7.07
2019-01-11T21:23:26.063Z,6.60
2019-01-11T21:26:15.154Z,7.30
2019-01-11T21:29:04.359Z,6.43
2019-01-11T21:31:53.450Z,7.20
2019-01-11T21:34:42.809Z,6.67
2019-01-11T21:37:31.931Z,6.50
2019-01-11T21:40:21.256Z,5.93
2019-01-11T21:43:10.597Z,7.33
2019-01-11T21:46:03.579Z,6.50
2019-01-11T21:48:51.024Z,8.00
2019-01-11T21:51:40.150Z,8.17
2019-01-11T21:54:29.582Z,7.83
2019-01-11T21:57:18.964Z,9.03
2019-01-11T22:00:12.671Z,7.20
2019-01-11T22:03:01.960Z,7.10
2019-01-11T22:05:44.206Z,8.03
2019-01-11T22:08:33.333Z,7.20
2019-01-11T22:11:22.469Z,6.60
2019-01-11T22:14:11.608Z,8.50
2019-01-11T22:17:00.705Z,8.13
2019-01-11T22:19:49.791Z,7.47
2019-01-11T22:22:38.882Z,8.60
2019-01-11T22:25:27.964Z,8.63
2019-01-11T22:28:17.163Z,8.57
2019-01-11T22:31:06.698Z,8.20
2019-01-11T22:33:55.793Z,8.07
2019-01-11T22:36:45.380Z,9.17
2019-01-11T22:39:34.795Z,7.47
2019-01-11T22:42:23.877Z,9.47
2019-01-11T22:45:13.828Z,8.90
2019-01-11T22:48:02.933Z,8.33
2019-01-11T22:50:52.062Z,8.97
2019-01-11T22:53:41.441Z,8.83
2019-01-11T22:56:31.098Z,7.83
2019-01-11T22:59:20.494Z,7.50
2019-01-11T23:02:32.343Z,11.30
2019-01-11T23:05:14.534Z,10.67
2019-01-11T23:08:07.615Z,9.90
2019-01-11T23:11:19.597Z,9.83
2019-01-11T23:14:08.738Z,9.53
2019-01-11T23:17:20.353Z,10.97
2019-01-11T23:20:50.768Z,9.70
2019-01-11T23:23:40.214Z,8.53
2019-01-11T23:26:29.375Z,9.07
2019-01-11T23:29:18.652Z,9.80
2019-01-11T23:32:07.751Z,8.40
2019-01-11T23:34:57.172Z,10.40
2019-01-11T23:37:46.239Z,10.40
2019-01-11T23:40:35.620Z,9.53
2019-01-11T23:43:24.738Z,9.33
2019-01-11T23:46:14.159Z,7.90
2019-01-11T23:49:03.526Z,10.80
2019-01-11T23:51:52.653Z,8.30
2019-01-11T23:54:42.013Z,8.47
2019-01-11T23:57:31.142Z,7.90
